sensor_id;sensor_type;location;lat;lon;timestamp;temperature;humidity
13610;DHT22;6876;50.788;4.940;2023-06-05T00:02:06;15.90;1.00
13610;DHT22;6876;50.788;4.940;2023-06-05T00:04:54;15.90;99.90
13610;DHT22;6876;50.788;4.940;2023-06-05T00:07:41;15.90;1.00
13610;DHT22;6876;50.788;4.940;2023-06-05T00:10:29;15.80;99.90
13610;DHT22;6876;50.788;4.940;2023-06-05T00:13:16;15.80;1.00
13610;DHT22;6876;50.788;4.940;2023-06-05T00:16:03;15.70;99.90
13610;DHT22;6876;50.788;4.940;2023-06-05T00:18:51;15.70;99.90
13610;DHT22;6876;50.788;4.940;2023-06-05T00:21:39;15.70;99.90
13610;DHT22;6876;50.788;4.940;2023-06-05T00:24:26;15.60;99.90
13610;DHT22;6876;50.788;4.940;2023-06-05T00:27:14;15.50;1.00
13610;DHT22;6876;50.788;4.940;2023-06-05T00:30:01;15.50;1.00
13610;DHT22;6876;50.788;4.940;2023-06-05T00:32:48;15.50;99.90
13610;DHT22;6876;50.788;4.940;2023-06-05T00:35:35;15.50;90.10
13610;DHT22;6876;50.788;4.940;2023-06-05T00:38:24;15.40;99.90
13610;DHT22;6876;50.788;4.940;2023-06-05T00:41:12;15.40;99.90
13610;DHT22;6876;50.788;4.940;2023-06-05T00:43:59;15.40;99.90
13610;DHT22;6876;50.788;4.940;2023-06-05T00:46:48;15.40;99.90
13610;DHT22;6876;50.788;4.940;2023-06-05T00:49:36;15.40;1.00
13610;DHT22;6876;50.788;4.940;2023-06-05T00:52:23;15.30;1.00
13610;DHT22;6876;50.788;4.940;2023-06-05T00:55:13;15.30;99.90
13610;DHT22;6876;50.788;4.940;2023-06-05T00:58:01;15.20;1.00
13610;DHT22;6876;50.788;4.940;2023-06-05T01:00:49;15.20;25.30
13610;DHT22;6876;50.788;4.940;2023-06-05T01:03:37;15.10;99.90
13610;DHT22;6876;50.788;4.940;2023-06-05T01:06:25;15.00;99.90
13610;DHT22;6876;50.788;4.940;2023-06-05T01:09:13;15.00;99.90
13610;DHT22;6876;50.788;4.940;2023-06-05T01:12:05;15.00;1.00
13610;DHT22;6876;50.788;4.940;2023-06-05T01:14:56;14.80;99.90
13610;DHT22;6876;50.788;4.940;2023-06-05T01:17:45;14.80;1.00
13610;DHT22;6876;50.788;4.940;2023-06-05T01:20:34;14.80;1.00
13610;DHT22;6876;50.788;4.940;2023-06-05T01:23:22;14.80;1.00
13610;DHT22;6876;50.788;4.940;2023-06-05T01:26:18;14.70;1.00
13610;DHT22;6876;50.788;4.940;2023-06-05T01:29:11;14.70;1.00
13610;DHT22;6876;50.788;4.940;2023-06-05T01:32:05;14.70;1.00
13610;DHT22;6876;50.788;4.940;2023-06-05T01:34:54;14.70;1.00
13610;DHT22;6876;50.788;4.940;2023-06-05T01:37:43;14.60;1.00
13610;DHT22;6876;50.788;4.940;2023-06-05T01:40:36;14.60;1.00
13610;DHT22;6876;50.788;4.940;2023-06-05T01:43:24;14.50;1.00
13610;DHT22;6876;50.788;4.940;2023-06-05T01:46:12;14.50;1.00
13610;DHT22;6876;50.788;4.940;2023-06-05T01:49:00;14.50;1.00
13610;DHT22;6876;50.788;4.940;2023-06-05T01:51:48;14.50;1.00
13610;DHT22;6876;50.788;4.940;2023-06-05T01:54:35;14.40;1.00
13610;DHT22;6876;50.788;4.940;2023-06-05T01:57:26;14.30;99.90
13610;DHT22;6876;50.788;4.940;2023-06-05T02:00:13;14.30;99.90
13610;DHT22;6876;50.788;4.940;2023-06-05T02:03:02;14.20;63.30
13610;DHT22;6876;50.788;4.940;2023-06-05T02:05:49;14.20;1.00
13610;DHT22;6876;50.788;4.940;2023-06-05T02:08:37;14.20;99.90
13610;DHT22;6876;50.788;4.940;2023-06-05T02:11:24;14.10;99.90
13610;DHT22;6876;50.788;4.940;2023-06-05T02:14:13;14.10;1.00
13610;DHT22;6876;50.788;4.940;2023-06-05T02:17:01;14.10;99.90
13610;DHT22;6876;50.788;4.940;2023-06-05T02:19:50;14.00;99.90
13610;DHT22;6876;50.788;4.940;2023-06-05T02:22:37;13.90;1.00
13610;DHT22;6876;50.788;4.940;2023-06-05T02:25:25;13.90;1.00
13610;DHT22;6876;50.788;4.940;2023-06-05T02:28:12;13.80;1.00
13610;DHT22;6876;50.788;4.940;2023-06-05T02:31:01;13.80;1.00
13610;DHT22;6876;50.788;4.940;2023-06-05T02:33:51;13.80;1.00
13610;DHT22;6876;50.788;4.940;2023-06-05T02:36:38;13.80;99.90
13610;DHT22;6876;50.788;4.940;2023-06-05T02:39:28;13.80;1.00
13610;DHT22;6876;50.788;4.940;2023-06-05T02:42:16;13.80;1.00
13610;DHT22;6876;50.788;4.940;2023-06-05T02:45:05;13.70;1.00
13610;DHT22;6876;50.788;4.940;2023-06-05T02:47:54;13.70;1.00
13610;DHT22;6876;50.788;4.940;2023-06-05T02:50:41;13.70;1.00
13610;DHT22;6876;50.788;4.940;2023-06-05T02:53:29;13.60;1.00
13610;DHT22;6876;50.788;4.940;2023-06-05T02:56:16;13.60;1.00
13610;DHT22;6876;50.788;4.940;2023-06-05T02:59:03;13.60;1.00
13610;DHT22;6876;50.788;4.940;2023-06-05T03:01:50;13.50;28.40
13610;DHT22;6876;50.788;4.940;2023-06-05T03:04:39;13.50;99.90
13610;DHT22;6876;50.788;4.940;2023-06-05T03:07:26;13.40;99.90
13610;DHT22;6876;50.788;4.940;2023-06-05T03:10:14;13.30;99.90
13610;DHT22;6876;50.788;4.940;2023-06-05T03:13:01;13.40;99.90
13610;DHT22;6876;50.788;4.940;2023-06-05T03:15:48;13.30;1.00
13610;DHT22;6876;50.788;4.940;2023-06-05T03:18:39;13.20;1.00
13610;DHT22;6876;50.788;4.940;2023-06-05T03:21:27;13.20;1.00
13610;DHT22;6876;50.788;4.940;2023-06-05T03:24:14;13.10;1.00
13610;DHT22;6876;50.788;4.940;2023-06-05T03:27:02;13.10;1.00
13610;DHT22;6876;50.788;4.940;2023-06-05T03:29:50;13.10;1.00
13610;DHT22;6876;50.788;4.940;2023-06-05T03:32:37;13.00;1.00
13610;DHT22;6876;50.788;4.940;2023-06-05T03:35:24;13.00;1.00
13610;DHT22;6876;50.788;4.940;2023-06-05T03:38:13;13.00;63.60
13610;DHT22;6876;50.788;4.940;2023-06-05T03:41:01;13.00;99.90
13610;DHT22;6876;50.788;4.940;2023-06-05T03:43:48;13.00;89.70
13610;DHT22;6876;50.788;4.940;2023-06-05T03:46:36;13.00;92.00
13610;DHT22;6876;50.788;4.940;2023-06-05T03:49:24;13.00;99.90
13610;DHT22;6876;50.788;4.940;2023-06-05T03:52:12;13.00;99.90
13610;DHT22;6876;50.788;4.940;2023-06-05T03:55:01;13.00;99.90
13610;DHT22;6876;50.788;4.940;2023-06-05T03:57:50;13.10;55.80
13610;DHT22;6876;50.788;4.940;2023-06-05T04:00:38;13.10;96.70
13610;DHT22;6876;50.788;4.940;2023-06-05T04:03:25;13.00;95.80
13610;DHT22;6876;50.788;4.940;2023-06-05T04:06:13;13.00;99.90
13610;DHT22;6876;50.788;4.940;2023-06-05T04:09:00;13.00;1.00
13610;DHT22;6876;50.788;4.940;2023-06-05T04:11:49;13.10;96.70
13610;DHT22;6876;50.788;4.940;2023-06-05T04:14:36;13.10;6.70
13610;DHT22;6876;50.788;4.940;2023-06-05T04:17:24;13.30;1.00
13610;DHT22;6876;50.788;4.940;2023-06-05T04:20:12;13.70;1.00
13610;DHT22;6876;50.788;4.940;2023-06-05T04:23:00;13.80;99.90
13610;DHT22;6876;50.788;4.940;2023-06-05T04:25:48;13.90;1.00
13610;DHT22;6876;50.788;4.940;2023-06-05T04:28:37;14.10;99.90
13610;DHT22;6876;50.788;4.940;2023-06-05T04:31:24;14.20;1.00
13610;DHT22;6876;50.788;4.940;2023-06-05T04:34:11;14.60;1.00
13610;DHT22;6876;50.788;4.940;2023-06-05T04:36:58;15.20;1.00
13610;DHT22;6876;50.788;4.940;2023-06-05T04:39:47;15.70;99.90
13610;DHT22;6876;50.788;4.940;2023-06-05T04:42:37;16.10;99.90
13610;DHT22;6876;50.788;4.940;2023-06-05T04:45:26;16.00;99.90
13610;DHT22;6876;50.788;4.940;2023-06-05T04:48:13;16.10;1.00
13610;DHT22;6876;50.788;4.940;2023-06-05T04:51:01;16.40;1.00
13610;DHT22;6876;50.788;4.940;2023-06-05T04:53:48;16.80;1.00
13610;DHT22;6876;50.788;4.940;2023-06-05T04:56:36;16.80;1.00
13610;DHT22;6876;50.788;4.940;2023-06-05T04:59:25;17.20;1.00
13610;DHT22;6876;50.788;4.940;2023-06-05T05:02:14;17.10;99.90
13610;DHT22;6876;50.788;4.940;2023-06-05T05:05:01;17.30;99.90
13610;DHT22;6876;50.788;4.940;2023-06-05T05:07:48;18.00;96.10
13610;DHT22;6876;50.788;4.940;2023-06-05T05:10:36;18.00;1.00
13610;DHT22;6876;50.788;4.940;2023-06-05T05:13:24;18.30;1.00
13610;DHT22;6876;50.788;4.940;2023-06-05T05:16:11;18.70;1.00
13610;DHT22;6876;50.788;4.940;2023-06-05T05:18:59;18.70;1.00
13610;DHT22;6876;50.788;4.940;2023-06-05T05:21:47;18.80;1.00
13610;DHT22;6876;50.788;4.940;2023-06-05T05:24:34;19.10;99.90
13610;DHT22;6876;50.788;4.940;2023-06-05T05:27:22;19.50;99.90
13610;DHT22;6876;50.788;4.940;2023-06-05T05:30:11;19.30;99.90
13610;DHT22;6876;50.788;4.940;2023-06-05T05:32:59;19.70;99.90
13610;DHT22;6876;50.788;4.940;2023-06-05T05:35:48;19.60;10.40
13610;DHT22;6876;50.788;4.940;2023-06-05T05:38:36;19.90;71.70
13610;DHT22;6876;50.788;4.940;2023-06-05T05:41:23;19.90;1.00
13610;DHT22;6876;50.788;4.940;2023-06-05T05:44:10;20.20;1.00
13610;DHT22;6876;50.788;4.940;2023-06-05T05:46:58;20.80;1.00
13610;DHT22;6876;50.788;4.940;2023-06-05T05:49:45;21.10;1.00
13610;DHT22;6876;50.788;4.940;2023-06-05T05:52:34;20.90;1.00
13610;DHT22;6876;50.788;4.940;2023-06-05T05:55:21;21.00;1.00
13610;DHT22;6876;50.788;4.940;2023-06-05T05:58:08;21.30;1.00
13610;DHT22;6876;50.788;4.940;2023-06-05T06:00:56;21.80;1.00
13610;DHT22;6876;50.788;4.940;2023-06-05T06:03:43;22.40;1.00
13610;DHT22;6876;50.788;4.940;2023-06-05T06:06:30;22.40;99.90
13610;DHT22;6876;50.788;4.940;2023-06-05T06:09:20;22.60;99.90
13610;DHT22;6876;50.788;4.940;2023-06-05T06:12:08;22.50;99.90
13610;DHT22;6876;50.788;4.940;2023-06-05T06:14:56;22.70;99.90
13610;DHT22;6876;50.788;4.940;2023-06-05T06:17:43;22.40;99.90
13610;DHT22;6876;50.788;4.940;2023-06-05T06:20:30;22.90;99.90
13610;DHT22;6876;50.788;4.940;2023-06-05T06:23:19;22.90;99.90
13610;DHT22;6876;50.788;4.940;2023-06-05T06:26:07;23.80;99.90
13610;DHT22;6876;50.788;4.940;2023-06-05T06:28:54;23.60;99.90
13610;DHT22;6876;50.788;4.940;2023-06-05T06:31:43;23.70;36.40
13610;DHT22;6876;50.788;4.940;2023-06-05T06:34:31;23.70;36.60
13610;DHT22;6876;50.788;4.940;2023-06-05T06:37:19;24.00;1.50
13610;DHT22;6876;50.788;4.940;2023-06-05T06:40:07;23.80;25.60
13610;DHT22;6876;50.788;4.940;2023-06-05T06:42:58;24.40;1.00
13610;DHT22;6876;50.788;4.940;2023-06-05T06:45:45;24.60;1.00
13610;DHT22;6876;50.788;4.940;2023-06-05T06:48:33;24.60;1.00
13610;DHT22;6876;50.788;4.940;2023-06-05T06:51:20;24.90;1.00
13610;DHT22;6876;50.788;4.940;2023-06-05T06:54:08;24.80;1.00
13610;DHT22;6876;50.788;4.940;2023-06-05T06:56:55;24.80;1.00
13610;DHT22;6876;50.788;4.940;2023-06-05T06:59:44;24.80;1.00
13610;DHT22;6876;50.788;4.940;2023-06-05T07:02:31;25.30;1.00
13610;DHT22;6876;50.788;4.940;2023-06-05T07:05:18;25.60;1.00
13610;DHT22;6876;50.788;4.940;2023-06-05T07:08:07;25.50;1.00
13610;DHT22;6876;50.788;4.940;2023-06-05T07:10:54;25.80;99.90
13610;DHT22;6876;50.788;4.940;2023-06-05T07:13:42;25.80;99.90
13610;DHT22;6876;50.788;4.940;2023-06-05T07:16:31;26.00;99.90
13610;DHT22;6876;50.788;4.940;2023-06-05T07:19:18;26.50;99.90
13610;DHT22;6876;50.788;4.940;2023-06-05T07:22:06;26.00;99.90
13610;DHT22;6876;50.788;4.940;2023-06-05T07:24:53;25.20;99.90
13610;DHT22;6876;50.788;4.940;2023-06-05T07:27:40;24.50;99.90
13610;DHT22;6876;50.788;4.940;2023-06-05T07:30:29;25.60;99.90
13610;DHT22;6876;50.788;4.940;2023-06-05T07:33:18;25.90;99.90
13610;DHT22;6876;50.788;4.940;2023-06-05T07:36:06;25.80;99.90
13610;DHT22;6876;50.788;4.940;2023-06-05T07:38:56;26.60;99.90
13610;DHT22;6876;50.788;4.940;2023-06-05T07:41:43;26.40;99.90
13610;DHT22;6876;50.788;4.940;2023-06-05T07:44:30;25.80;99.90
13610;DHT22;6876;50.788;4.940;2023-06-05T07:47:18;26.10;99.90
13610;DHT22;6876;50.788;4.940;2023-06-05T07:50:07;26.20;99.90
13610;DHT22;6876;50.788;4.940;2023-06-05T07:52:55;25.60;99.90
13610;DHT22;6876;50.788;4.940;2023-06-05T07:55:42;25.30;99.90
13610;DHT22;6876;50.788;4.940;2023-06-05T07:58:29;25.60;99.90
13610;DHT22;6876;50.788;4.940;2023-06-05T08:01:18;26.30;99.90
13610;DHT22;6876;50.788;4.940;2023-06-05T08:04:07;26.90;99.90
13610;DHT22;6876;50.788;4.940;2023-06-05T08:06:57;27.80;99.90
13610;DHT22;6876;50.788;4.940;2023-06-05T08:09:44;27.50;99.90
13610;DHT22;6876;50.788;4.940;2023-06-05T08:12:31;28.30;99.90
13610;DHT22;6876;50.788;4.940;2023-06-05T08:15:19;28.30;99.90
13610;DHT22;6876;50.788;4.940;2023-06-05T08:18:06;28.00;99.90
13610;DHT22;6876;50.788;4.940;2023-06-05T08:20:53;28.00;99.90
13610;DHT22;6876;50.788;4.940;2023-06-05T08:23:42;28.80;99.90
13610;DHT22;6876;50.788;4.940;2023-06-05T08:26:29;29.30;99.90
13610;DHT22;6876;50.788;4.940;2023-06-05T08:29:16;29.50;99.90
13610;DHT22;6876;50.788;4.940;2023-06-05T08:32:04;28.60;99.90
13610;DHT22;6876;50.788;4.940;2023-06-05T08:34:51;28.00;99.90
13610;DHT22;6876;50.788;4.940;2023-06-05T08:37:39;28.20;99.90
13610;DHT22;6876;50.788;4.940;2023-06-05T08:40:28;28.60;99.90
13610;DHT22;6876;50.788;4.940;2023-06-05T08:43:17;29.30;99.90
13610;DHT22;6876;50.788;4.940;2023-06-05T08:46:05;29.30;99.90
13610;DHT22;6876;50.788;4.940;2023-06-05T08:48:53;29.70;99.90
13610;DHT22;6876;50.788;4.940;2023-06-05T08:51:42;29.50;99.90
13610;DHT22;6876;50.788;4.940;2023-06-05T08:54:33;28.70;99.90
13610;DHT22;6876;50.788;4.940;2023-06-05T08:57:23;28.70;99.90
13610;DHT22;6876;50.788;4.940;2023-06-05T09:00:11;28.40;99.90
13610;DHT22;6876;50.788;4.940;2023-06-05T09:03:00;28.20;99.90
13610;DHT22;6876;50.788;4.940;2023-06-05T09:05:47;28.30;99.90
13610;DHT22;6876;50.788;4.940;2023-06-05T09:08:35;28.30;99.90
13610;DHT22;6876;50.788;4.940;2023-06-05T09:11:24;28.00;99.90
13610;DHT22;6876;50.788;4.940;2023-06-05T09:14:25;28.90;99.90
13610;DHT22;6876;50.788;4.940;2023-06-05T09:17:13;29.70;99.90
13610;DHT22;6876;50.788;4.940;2023-06-05T09:20:01;30.30;99.90
13610;DHT22;6876;50.788;4.940;2023-06-05T09:22:50;29.40;99.90
13610;DHT22;6876;50.788;4.940;2023-06-05T09:25:46;29.80;99.90
13610;DHT22;6876;50.788;4.940;2023-06-05T09:28:34;30.00;99.90
13610;DHT22;6876;50.788;4.940;2023-06-05T09:31:23;30.20;99.90
13610;DHT22;6876;50.788;4.940;2023-06-05T09:34:10;29.60;99.90
13610;DHT22;6876;50.788;4.940;2023-06-05T09:36:59;29.70;99.90
13610;DHT22;6876;50.788;4.940;2023-06-05T09:39:49;29.70;99.90
13610;DHT22;6876;50.788;4.940;2023-06-05T09:42:37;30.10;99.90
13610;DHT22;6876;50.788;4.940;2023-06-05T09:45:40;30.10;99.90
13610;DHT22;6876;50.788;4.940;2023-06-05T09:48:29;29.80;99.90
13610;DHT22;6876;50.788;4.940;2023-06-05T09:51:19;28.50;99.90
13610;DHT22;6876;50.788;4.940;2023-06-05T09:54:06;28.40;99.90
13610;DHT22;6876;50.788;4.940;2023-06-05T09:56:57;29.00;99.90
13610;DHT22;6876;50.788;4.940;2023-06-05T09:59:48;29.00;99.90
13610;DHT22;6876;50.788;4.940;2023-06-05T10:02:37;29.30;99.90
13610;DHT22;6876;50.788;4.940;2023-06-05T10:05:26;29.10;99.90
13610;DHT22;6876;50.788;4.940;2023-06-05T10:08:15;29.50;99.90
13610;DHT22;6876;50.788;4.940;2023-06-05T10:11:03;29.60;99.90
13610;DHT22;6876;50.788;4.940;2023-06-05T10:13:52;29.60;99.90
13610;DHT22;6876;50.788;4.940;2023-06-05T10:16:39;28.40;99.90
13610;DHT22;6876;50.788;4.940;2023-06-05T10:19:27;28.60;99.90
13610;DHT22;6876;50.788;4.940;2023-06-05T10:22:17;28.80;99.90
13610;DHT22;6876;50.788;4.940;2023-06-05T10:25:06;28.50;99.90
13610;DHT22;6876;50.788;4.940;2023-06-05T10:28:05;28.80;99.90
13610;DHT22;6876;50.788;4.940;2023-06-05T10:31:20;28.40;99.90
13610;DHT22;6876;50.788;4.940;2023-06-05T10:34:27;27.80;99.90
13610;DHT22;6876;50.788;4.940;2023-06-05T10:37:37;28.20;99.90
13610;DHT22;6876;50.788;4.940;2023-06-05T10:40:26;28.80;99.90
13610;DHT22;6876;50.788;4.940;2023-06-05T10:43:27;29.20;99.90
13610;DHT22;6876;50.788;4.940;2023-06-05T10:46:31;28.60;99.90
13610;DHT22;6876;50.788;4.940;2023-06-05T10:49:18;28.50;99.90
13610;DHT22;6876;50.788;4.940;2023-06-05T10:52:06;28.60;99.90
13610;DHT22;6876;50.788;4.940;2023-06-05T10:55:15;28.40;99.90
13610;DHT22;6876;50.788;4.940;2023-06-05T10:58:04;28.70;99.90
13610;DHT22;6876;50.788;4.940;2023-06-05T11:01:20;28.50;99.90
13610;DHT22;6876;50.788;4.940;2023-06-05T11:04:08;28.20;99.90
13610;DHT22;6876;50.788;4.940;2023-06-05T11:07:16;27.90;77.00
13610;DHT22;6876;50.788;4.940;2023-06-05T11:10:25;27.80;78.60
13610;DHT22;6876;50.788;4.940;2023-06-05T11:13:13;28.10;80.70
13610;DHT22;6876;50.788;4.940;2023-06-05T11:16:00;28.20;91.40
13610;DHT22;6876;50.788;4.940;2023-06-05T11:18:47;28.40;84.50
13610;DHT22;6876;50.788;4.940;2023-06-05T11:22:04;28.40;79.30
13610;DHT22;6876;50.788;4.940;2023-06-05T11:25:26;28.20;76.00
13610;DHT22;6876;50.788;4.940;2023-06-05T11:28:14;28.10;70.20
13610;DHT22;6876;50.788;4.940;2023-06-05T11:31:29;27.60;79.30
13610;DHT22;6876;50.788;4.940;2023-06-05T11:34:18;27.70;42.80
13610;DHT22;6876;50.788;4.940;2023-06-05T11:37:15;27.80;20.00
13610;DHT22;6876;50.788;4.940;2023-06-05T11:40:05;27.40;16.60
13610;DHT22;6876;50.788;4.940;2023-06-05T11:43:02;27.10;16.20
13610;DHT22;6876;50.788;4.940;2023-06-05T11:45:51;27.40;17.60
13610;DHT22;6876;50.788;4.940;2023-06-05T11:48:46;27.60;35.20
13610;DHT22;6876;50.788;4.940;2023-06-05T11:51:33;27.50;18.30
13610;DHT22;6876;50.788;4.940;2023-06-05T11:54:25;27.30;17.60
13610;DHT22;6876;50.788;4.940;2023-06-05T11:57:13;27.50;18.10
13610;DHT22;6876;50.788;4.940;2023-06-05T12:00:03;27.40;33.90
13610;DHT22;6876;50.788;4.940;2023-06-05T12:02:52;27.70;17.70
13610;DHT22;6876;50.788;4.940;2023-06-05T12:05:41;27.60;18.50
13610;DHT22;6876;50.788;4.940;2023-06-05T12:08:29;27.20;18.30
13610;DHT22;6876;50.788;4.940;2023-06-05T12:11:23;27.20;17.40
13610;DHT22;6876;50.788;4.940;2023-06-05T12:14:13;27.00;17.80
13610;DHT22;6876;50.788;4.940;2023-06-05T12:17:07;26.90;1.00
13610;DHT22;6876;50.788;4.940;2023-06-05T12:19:55;27.00;1.00
13610;DHT22;6876;50.788;4.940;2023-06-05T12:22:44;27.20;1.00
13610;DHT22;6876;50.788;4.940;2023-06-05T12:25:32;27.30;11.00
13610;DHT22;6876;50.788;4.940;2023-06-05T12:28:19;27.00;1.00
13610;DHT22;6876;50.788;4.940;2023-06-05T12:31:07;26.90;1.00
13610;DHT22;6876;50.788;4.940;2023-06-05T12:33:54;26.80;1.00
13610;DHT22;6876;50.788;4.940;2023-06-05T12:36:41;26.60;1.00
13610;DHT22;6876;50.788;4.940;2023-06-05T12:39:30;26.60;1.00
13610;DHT22;6876;50.788;4.940;2023-06-05T12:42:17;26.50;1.00
13610;DHT22;6876;50.788;4.940;2023-06-05T12:45:06;26.80;1.00
13610;DHT22;6876;50.788;4.940;2023-06-05T12:47:53;26.70;1.00
13610;DHT22;6876;50.788;4.940;2023-06-05T12:50:41;26.70;1.00
13610;DHT22;6876;50.788;4.940;2023-06-05T12:53:28;26.50;1.00
13610;DHT22;6876;50.788;4.940;2023-06-05T12:56:18;26.50;1.00
13610;DHT22;6876;50.788;4.940;2023-06-05T12:59:09;26.70;1.00
13610;DHT22;6876;50.788;4.940;2023-06-05T13:01:56;26.60;1.00
13610;DHT22;6876;50.788;4.940;2023-06-05T13:04:43;26.70;1.00
13610;DHT22;6876;50.788;4.940;2023-06-05T13:07:31;26.50;1.00
13610;DHT22;6876;50.788;4.940;2023-06-05T13:10:18;26.30;1.00
13610;DHT22;6876;50.788;4.940;2023-06-05T13:13:07;26.30;1.00
13610;DHT22;6876;50.788;4.940;2023-06-05T13:15:54;26.40;1.00
13610;DHT22;6876;50.788;4.940;2023-06-05T13:18:42;26.30;1.00
13610;DHT22;6876;50.788;4.940;2023-06-05T13:21:29;26.40;1.00
13610;DHT22;6876;50.788;4.940;2023-06-05T13:24:16;26.40;1.00
13610;DHT22;6876;50.788;4.940;2023-06-05T13:27:04;26.20;1.00
13610;DHT22;6876;50.788;4.940;2023-06-05T13:29:53;26.10;1.00
13610;DHT22;6876;50.788;4.940;2023-06-05T13:32:40;26.30;1.00
13610;DHT22;6876;50.788;4.940;2023-06-05T13:35:30;26.20;1.00
13610;DHT22;6876;50.788;4.940;2023-06-05T13:38:17;26.30;1.00
13610;DHT22;6876;50.788;4.940;2023-06-05T13:41:04;26.10;1.00
13610;DHT22;6876;50.788;4.940;2023-06-05T13:43:52;26.10;1.00
13610;DHT22;6876;50.788;4.940;2023-06-05T13:46:40;26.10;1.00
13610;DHT22;6876;50.788;4.940;2023-06-05T13:49:29;25.90;1.00
13610;DHT22;6876;50.788;4.940;2023-06-05T13:52:17;26.10;1.00
13610;DHT22;6876;50.788;4.940;2023-06-05T13:55:05;26.10;1.00
13610;DHT22;6876;50.788;4.940;2023-06-05T13:57:53;26.20;1.00
13610;DHT22;6876;50.788;4.940;2023-06-05T14:00:42;26.20;1.00
13610;DHT22;6876;50.788;4.940;2023-06-05T14:03:31;26.20;1.00
13610;DHT22;6876;50.788;4.940;2023-06-05T14:06:18;26.20;1.00
13610;DHT22;6876;50.788;4.940;2023-06-05T14:09:06;26.10;1.00
13610;DHT22;6876;50.788;4.940;2023-06-05T14:11:53;26.00;1.00
13610;DHT22;6876;50.788;4.940;2023-06-05T14:14:40;26.20;1.00
13610;DHT22;6876;50.788;4.940;2023-06-05T14:17:28;26.30;1.00
13610;DHT22;6876;50.788;4.940;2023-06-05T14:20:17;26.20;1.00
13610;DHT22;6876;50.788;4.940;2023-06-05T14:23:04;26.10;1.00
13610;DHT22;6876;50.788;4.940;2023-06-05T14:25:52;26.00;1.00
13610;DHT22;6876;50.788;4.940;2023-06-05T14:28:39;26.00;1.00
13610;DHT22;6876;50.788;4.940;2023-06-05T14:31:26;25.90;1.00
13610;DHT22;6876;50.788;4.940;2023-06-05T14:34:14;26.10;1.00
13610;DHT22;6876;50.788;4.940;2023-06-05T14:37:03;25.90;1.00
13610;DHT22;6876;50.788;4.940;2023-06-05T14:39:50;26.10;1.00
13610;DHT22;6876;50.788;4.940;2023-06-05T14:42:38;26.30;1.00
13610;DHT22;6876;50.788;4.940;2023-06-05T14:45:25;26.40;1.00
13610;DHT22;6876;50.788;4.940;2023-06-05T14:48:13;26.40;1.00
13610;DHT22;6876;50.788;4.940;2023-06-05T14:51:00;26.40;1.00
13610;DHT22;6876;50.788;4.940;2023-06-05T14:53:49;26.20;1.00
13610;DHT22;6876;50.788;4.940;2023-06-05T14:56:37;26.00;1.00
13610;DHT22;6876;50.788;4.940;2023-06-05T14:59:25;25.90;1.00
13610;DHT22;6876;50.788;4.940;2023-06-05T15:02:13;25.90;1.00
13610;DHT22;6876;50.788;4.940;2023-06-05T15:05:01;25.80;1.00
13610;DHT22;6876;50.788;4.940;2023-06-05T15:07:49;25.80;1.00
13610;DHT22;6876;50.788;4.940;2023-06-05T15:10:39;25.80;1.00
13610;DHT22;6876;50.788;4.940;2023-06-05T15:13:26;25.90;1.00
13610;DHT22;6876;50.788;4.940;2023-06-05T15:16:13;25.90;1.00
13610;DHT22;6876;50.788;4.940;2023-06-05T15:19:00;26.00;1.00
13610;DHT22;6876;50.788;4.940;2023-06-05T15:21:48;26.10;1.00
13610;DHT22;6876;50.788;4.940;2023-06-05T15:24:35;25.80;1.00
13610;DHT22;6876;50.788;4.940;2023-06-05T15:27:23;25.90;1.00
13610;DHT22;6876;50.788;4.940;2023-06-05T15:30:11;25.90;1.00
13610;DHT22;6876;50.788;4.940;2023-06-05T15:32:58;26.00;1.00
13610;DHT22;6876;50.788;4.940;2023-06-05T15:35:46;25.80;1.00
13610;DHT22;6876;50.788;4.940;2023-06-05T15:38:35;25.70;1.00
13610;DHT22;6876;50.788;4.940;2023-06-05T15:41:23;25.70;1.00
13610;DHT22;6876;50.788;4.940;2023-06-05T15:44:14;25.60;1.00
13610;DHT22;6876;50.788;4.940;2023-06-05T15:47:02;25.60;1.00
13610;DHT22;6876;50.788;4.940;2023-06-05T15:49:49;25.60;1.00
13610;DHT22;6876;50.788;4.940;2023-06-05T15:52:37;25.40;1.00
13610;DHT22;6876;50.788;4.940;2023-06-05T15:55:24;25.50;1.00
13610;DHT22;6876;50.788;4.940;2023-06-05T15:58:12;25.50;1.00
13610;DHT22;6876;50.788;4.940;2023-06-05T16:01:00;25.50;1.00
13610;DHT22;6876;50.788;4.940;2023-06-05T16:03:48;25.60;1.00
13610;DHT22;6876;50.788;4.940;2023-06-05T16:06:35;25.50;1.00
13610;DHT22;6876;50.788;4.940;2023-06-05T16:09:22;25.60;1.00
13610;DHT22;6876;50.788;4.940;2023-06-05T16:12:10;25.60;1.00
13610;DHT22;6876;50.788;4.940;2023-06-05T16:14:57;25.40;1.00
13610;DHT22;6876;50.788;4.940;2023-06-05T16:17:46;25.40;1.00
13610;DHT22;6876;50.788;4.940;2023-06-05T16:20:35;25.40;1.00
13610;DHT22;6876;50.788;4.940;2023-06-05T16:23:22;25.40;1.00
13610;DHT22;6876;50.788;4.940;2023-06-05T16:26:09;25.40;1.00
13610;DHT22;6876;50.788;4.940;2023-06-05T16:28:58;25.40;1.00
13610;DHT22;6876;50.788;4.940;2023-06-05T16:31:46;25.20;1.00
13610;DHT22;6876;50.788;4.940;2023-06-05T16:34:35;25.10;1.00
13610;DHT22;6876;50.788;4.940;2023-06-05T16:37:22;25.10;1.00
13610;DHT22;6876;50.788;4.940;2023-06-05T16:40:11;25.10;1.00
13610;DHT22;6876;50.788;4.940;2023-06-05T16:42:59;25.20;1.00
13610;DHT22;6876;50.788;4.940;2023-06-05T16:45:46;25.20;1.00
13610;DHT22;6876;50.788;4.940;2023-06-05T16:48:35;25.00;1.00
13610;DHT22;6876;50.788;4.940;2023-06-05T16:51:23;25.20;1.00
13610;DHT22;6876;50.788;4.940;2023-06-05T16:54:10;25.10;1.00
13610;DHT22;6876;50.788;4.940;2023-06-05T16:56:59;24.90;1.00
13610;DHT22;6876;50.788;4.940;2023-06-05T16:59:46;24.80;1.00
13610;DHT22;6876;50.788;4.940;2023-06-05T17:02:34;24.80;1.00
13610;DHT22;6876;50.788;4.940;2023-06-05T17:05:21;24.80;1.00
13610;DHT22;6876;50.788;4.940;2023-06-05T17:08:10;24.80;1.00
13610;DHT22;6876;50.788;4.940;2023-06-05T17:10:59;24.80;1.00
13610;DHT22;6876;50.788;4.940;2023-06-05T17:13:46;24.80;1.00
13610;DHT22;6876;50.788;4.940;2023-06-05T17:16:34;24.70;1.00
13610;DHT22;6876;50.788;4.940;2023-06-05T17:19:22;24.70;1.00
13610;DHT22;6876;50.788;4.940;2023-06-05T17:22:09;24.70;1.00
13610;DHT22;6876;50.788;4.940;2023-06-05T17:24:58;24.60;1.00
13610;DHT22;6876;50.788;4.940;2023-06-05T17:27:45;24.60;1.00
13610;DHT22;6876;50.788;4.940;2023-06-05T17:30:33;24.60;1.00
13610;DHT22;6876;50.788;4.940;2023-06-05T17:33:20;24.50;1.00
13610;DHT22;6876;50.788;4.940;2023-06-05T17:36:08;24.40;1.00
13610;DHT22;6876;50.788;4.940;2023-06-05T17:38:55;24.30;1.00
13610;DHT22;6876;50.788;4.940;2023-06-05T17:41:44;24.30;1.00
13610;DHT22;6876;50.788;4.940;2023-06-05T17:44:32;24.40;1.00
13610;DHT22;6876;50.788;4.940;2023-06-05T17:47:19;24.40;1.00
13610;DHT22;6876;50.788;4.940;2023-06-05T17:50:07;24.30;1.00
13610;DHT22;6876;50.788;4.940;2023-06-05T17:52:55;24.20;1.00
13610;DHT22;6876;50.788;4.940;2023-06-05T17:55:42;24.20;1.00
13610;DHT22;6876;50.788;4.940;2023-06-05T17:58:30;24.30;1.00
13610;DHT22;6876;50.788;4.940;2023-06-05T18:01:18;24.30;1.00
13610;DHT22;6876;50.788;4.940;2023-06-05T18:04:05;24.20;1.00
13610;DHT22;6876;50.788;4.940;2023-06-05T18:06:52;24.00;1.00
13610;DHT22;6876;50.788;4.940;2023-06-05T18:09:39;23.90;1.00
13610;DHT22;6876;50.788;4.940;2023-06-05T18:12:27;23.90;1.00
13610;DHT22;6876;50.788;4.940;2023-06-05T18:15:16;23.80;1.00